createdAt,value
2022-08-07T00:00:06.965Z,96.20
2022-08-07T00:01:44.272Z,96.20
2022-08-07T00:03:36.576Z,96.20
2022-08-07T00:05:10.293Z,96.40
2022-08-07T00:06:51.525Z,96.30
2022-08-07T00:08:25.019Z,96.30
2022-08-07T00:10:19.047Z,96.40
2022-08-07T00:11:55.635Z,96.30
2022-08-07T00:13:28.093Z,96.50
2022-08-07T00:15:00.864Z,96.40
2022-08-07T00:16:34.077Z,96.60
2022-08-07T00:18:09.706Z,96.50
2022-08-07T00:19:59.917Z,96.60
2022-08-07T00:21:56.304Z,96.50
2022-08-07T00:23:28.509Z,96.50
2022-08-07T00:25:03.743Z,96.60
2022-08-07T00:26:59.089Z,96.80
2022-08-07T00:28:34.115Z,96.60
2022-08-07T00:30:21.666Z,96.70
2022-08-07T00:32:01.780Z,96.70
2022-08-07T00:33:35.711Z,96.80
2022-08-07T00:35:09.329Z,96.70
2022-08-07T00:36:43.244Z,96.90
2022-08-07T00:38:16.320Z,96.80
2022-08-07T00:40:04.740Z,96.80
2022-08-07T00:41:45.396Z,96.80
2022-08-07T00:43:58.952Z,96.80
2022-08-07T00:45:21.191Z,96.80
2022-08-07T00:46:55.603Z,97.00
2022-08-07T00:48:32.068Z,96.70
2022-08-07T00:50:19.217Z,96.90
2022-08-07T00:51:57.492Z,96.80
2022-08-07T00:53:38.970Z,96.90
2022-08-07T00:55:25.558Z,97.10
2022-08-07T00:57:17.787Z,96.80
2022-08-07T00:58:50.872Z,96.90
2022-08-07T01:00:24.465Z,96.80
2022-08-07T01:01:57.922Z,96.90
2022-08-07T01:03:56.584Z,96.80
2022-08-07T01:05:24.783Z,97.00
2022-08-07T01:06:57.664Z,96.80
2022-08-07T01:08:30.487Z,96.80
2022-08-07T01:10:06.253Z,97.00
2022-08-07T01:12:09.428Z,97.10
2022-08-07T01:13:37.063Z,97.10
2022-08-07T01:15:16.918Z,97.00
2022-08-07T01:16:51.458Z,97.00
2022-08-07T01:18:24.765Z,97.10
2022-08-07T01:20:01.831Z,97.10
2022-08-07T01:21:37.927Z,97.00
2022-08-07T01:23:12.766Z,97.20
2022-08-07T01:24:46.279Z,97.20
2022-08-07T01:26:21.394Z,97.20
2022-08-07T01:27:54.541Z,97.30
2022-08-07T01:29:31.553Z,97.20
2022-08-07T01:31:07.501Z,97.30
2022-08-07T01:32:48.279Z,97.20
2022-08-07T01:34:30.048Z,97.40
2022-08-07T01:36:05.872Z,97.40
2022-08-07T01:37:41.852Z,97.40
2022-08-07T01:39:14.915Z,97.30
2022-08-07T01:40:50.329Z,97.50
2022-08-07T01:42:37.628Z,97.40
2022-08-07T01:44:13.791Z,97.40
2022-08-07T01:45:49.903Z,97.30
2022-08-07T01:48:29.250Z,97.50
2022-08-07T01:49:21.409Z,97.30
2022-08-07T01:50:58.940Z,97.50
2022-08-07T01:52:33.130Z,97.40
2022-08-07T01:54:21.986Z,97.50
2022-08-07T01:56:09.166Z,97.40
2022-08-07T01:58:05.817Z,97.40
2022-08-07T01:59:45.390Z,97.60
2022-08-07T02:01:25.518Z,97.70
2022-08-07T02:03:21.849Z,97.70
2022-08-07T02:05:04.900Z,97.70
2022-08-07T02:06:40.690Z,97.70
2022-08-07T02:08:17.565Z,97.70
2022-08-07T02:09:58.797Z,97.80
2022-08-07T02:12:04.253Z,97.80
2022-08-07T02:13:58.117Z,97.80
2022-08-07T02:15:25.461Z,97.90
2022-08-07T02:17:00.899Z,98.00
2022-08-07T02:18:38.390Z,98.40
2022-08-07T02:20:23.882Z,97.90
2022-08-07T02:21:59.636Z,98.10
2022-08-07T02:23:35.804Z,98.20
2022-08-07T02:25:13.762Z,98.20
2022-08-07T02:26:50.227Z,98.20
2022-08-07T02:28:28.079Z,98.30
2022-08-07T02:30:04.029Z,98.30
2022-08-07T02:31:41.188Z,98.40
2022-08-07T02:33:15.514Z,98.40
2022-08-07T02:34:51.750Z,98.40
2022-08-07T02:36:29.322Z,98.40
2022-08-07T02:38:06.280Z,98.70
2022-08-07T02:39:43.783Z,98.60
2022-08-07T02:41:37.132Z,98.60
2022-08-07T02:43:10.950Z,98.60
2022-08-07T02:44:48.339Z,98.60
2022-08-07T02:46:24.651Z,98.80
2022-08-07T02:47:57.711Z,99.10
2022-08-07T02:49:57.666Z,98.80
2022-08-07T02:51:49.773Z,98.80
2022-08-07T02:53:27.229Z,98.80
2022-08-07T02:55:02.702Z,98.90
2022-08-07T02:56:40.463Z,99.00
2022-08-07T02:58:18.137Z,98.80
2022-08-07T03:00:01.361Z,98.80
2022-08-07T03:01:39.978Z,98.90
2022-08-07T03:03:13.832Z,99.00
2022-08-07T03:04:57.129Z,99.00
2022-08-07T03:06:32.842Z,99.10
2022-08-07T03:08:10.447Z,99.00
2022-08-07T03:09:47.212Z,99.10
2022-08-07T03:11:25.284Z,99.20
2022-08-07T03:13:03.327Z,99.20
2022-08-07T03:14:38.182Z,99.10
2022-08-07T03:16:12.783Z,99.20
2022-08-07T03:17:53.271Z,99.30
2022-08-07T03:19:28.963Z,99.60
2022-08-07T03:21:02.650Z,99.40
2022-08-07T03:22:36.996Z,99.30
2022-08-07T03:24:20.437Z,99.50
2022-08-07T03:26:02.803Z,99.50
2022-08-07T03:27:58.803Z,99.50
2022-08-07T03:29:36.775Z,99.70
2022-08-07T03:31:19.363Z,99.80
2022-08-07T03:33:01.479Z,99.60
2022-08-07T03:34:46.989Z,99.80
2022-08-07T03:36:23.047Z,99.70
2022-08-07T03:38:02.041Z,99.80
2022-08-07T03:39:45.803Z,99.60
2022-08-07T03:41:42.249Z,99.70
2022-08-07T03:43:20.303Z,99.80
2022-08-07T03:45:01.483Z,99.80
2022-08-07T03:46:35.199Z,99.90
2022-08-07T03:48:10.055Z,99.90
2022-08-07T03:49:47.701Z,99.90
2022-08-07T03:51:30.761Z,99.90
2022-08-07T03:53:04.810Z,99.90
2022-08-07T03:54:54.485Z,99.90
2022-08-07T03:56:33.299Z,99.90
2022-08-07T03:58:34.296Z,99.90
2022-08-07T04:00:01.822Z,99.90
2022-08-07T04:01:40.688Z,99.90
2022-08-07T04:03:18.563Z,99.90
2022-08-07T04:04:53.078Z,99.90
2022-08-07T04:06:37.615Z,99.90
2022-08-07T04:08:12.500Z,99.90
2022-08-07T04:09:50.597Z,99.90
2022-08-07T04:12:26.213Z,99.90
2022-08-07T04:13:17.410Z,99.90
2022-08-07T04:14:53.359Z,99.90
2022-08-07T04:16:31.135Z,99.90
2022-08-07T04:18:57.024Z,99.90
2022-08-07T04:19:59.035Z,99.90
2022-08-07T04:21:33.409Z,99.90
2022-08-07T04:23:07.255Z,99.90
2022-08-07T04:24:51.659Z,99.90
2022-08-07T04:26:28.639Z,99.90
2022-08-07T04:28:01.707Z,99.90
2022-08-07T04:29:40.298Z,99.90
2022-08-07T04:32:02.926Z,99.90
2022-08-07T04:33:19.743Z,99.90
2022-08-07T04:34:57.281Z,99.90
2022-08-07T04:36:30.112Z,99.90
2022-08-07T04:38:07.286Z,99.90
2022-08-07T04:39:45.641Z,99.90
2022-08-07T04:41:22.703Z,99.90
2022-08-07T04:42:55.415Z,99.90
2022-08-07T04:44:36.969Z,99.90
2022-08-07T04:46:35.914Z,99.90
2022-08-07T04:48:36.575Z,99.90
2022-08-07T04:50:14.966Z,99.90
2022-08-07T04:52:00.981Z,99.90
2022-08-07T04:54:06.507Z,99.90
2022-08-07T04:58:11.442Z,99.90
2022-08-07T04:58:13.070Z,99.90
2022-08-07T05:00:09.603Z,99.90
2022-08-07T05:01:46.869Z,99.90
2022-08-07T05:04:07.158Z,99.90
2022-08-07T05:05:53.255Z,99.90
2022-08-07T05:07:30.521Z,99.90
2022-08-07T05:09:15.027Z,99.90
2022-08-07T05:10:51.314Z,99.90
2022-08-07T05:12:46.189Z,99.90
2022-08-07T05:14:54.549Z,99.90
2022-08-07T05:16:23.107Z,99.90
2022-08-07T05:18:01.455Z,99.90
2022-08-07T05:19:44.778Z,99.90
2022-08-07T05:22:00.638Z,99.90
2022-08-07T05:23:29.067Z,99.90
2022-08-07T05:25:03.503Z,99.90
2022-08-07T05:26:42.671Z,99.90
2022-08-07T05:28:23.421Z,99.90
2022-08-07T05:30:01.302Z,99.90
2022-08-07T05:31:38.374Z,99.90
2022-08-07T05:33:11.921Z,99.90
2022-08-07T05:34:44.282Z,99.90
2022-08-07T05:36:22.635Z,99.90
2022-08-07T05:38:08.620Z,99.90
2022-08-07T05:40:13.979Z,99.90
2022-08-07T05:42:02.636Z,99.90
2022-08-07T05:43:49.519Z,99.90
2022-08-07T05:45:46.140Z,99.90
2022-08-07T05:47:19.880Z,99.90
2022-08-07T05:48:58.322Z,99.90
2022-08-07T05:50:34.112Z,99.90
2022-08-07T05:52:08.327Z,99.90
2022-08-07T05:54:12.421Z,99.90
2022-08-07T05:56:01.872Z,99.90
2022-08-07T05:57:34.718Z,99.90
2022-08-07T05:59:16.839Z,99.90
2022-08-07T06:00:51.222Z,99.90
2022-08-07T06:02:29.197Z,99.90
2022-08-07T06:04:03.774Z,99.90
2022-08-07T06:05:36.846Z,99.90
2022-08-07T06:07:23.075Z,99.90
2022-08-07T06:09:07.835Z,99.80
2022-08-07T06:10:40.564Z,99.90
2022-08-07T06:12:15.855Z,99.80
2022-08-07T06:14:12.958Z,99.90
2022-08-07T06:15:49.952Z,99.80
2022-08-07T06:17:30.454Z,99.80
2022-08-07T06:19:18.003Z,99.50
2022-08-07T06:22:16.273Z,99.20
2022-08-07T06:23:02.291Z,99.40
2022-08-07T06:25:01.083Z,99.40
2022-08-07T06:26:34.775Z,99.50
2022-08-07T06:28:08.159Z,99.40
2022-08-07T06:29:41.208Z,99.10
2022-08-07T06:31:14.534Z,99.20
2022-08-07T06:32:48.111Z,99.20
2022-08-07T06:34:24.831Z,99.20
2022-08-07T06:36:12.296Z,99.10
2022-08-07T06:37:47.089Z,99.00
2022-08-07T06:40:13.305Z,98.70
2022-08-07T06:41:47.648Z,98.90
2022-08-07T06:43:22.539Z,99.00
2022-08-07T06:44:58.408Z,98.80
2022-08-07T06:46:35.463Z,98.70
2022-08-07T06:48:08.672Z,98.70
2022-08-07T06:49:51.949Z,98.80
2022-08-07T06:51:33.485Z,99.20
2022-08-07T06:53:49.353Z,98.80
2022-08-07T06:55:33.949Z,98.70
2022-08-07T06:56:57.861Z,98.50
2022-08-07T06:58:32.084Z,98.30
2022-08-07T07:00:12.871Z,98.20
2022-08-07T07:01:52.145Z,97.60
2022-08-07T07:03:39.693Z,97.80
2022-08-07T07:06:02.959Z,97.80
2022-08-07T07:07:19.481Z,97.40
2022-08-07T07:09:24.123Z,97.60
2022-08-07T07:10:58.846Z,97.70
2022-08-07T07:12:41.765Z,97.10
2022-08-07T07:14:25.411Z,97.40
2022-08-07T07:16:05.081Z,96.70
2022-08-07T07:17:45.432Z,97.00
2022-08-07T07:19:56.263Z,96.30
2022-08-07T07:21:27.067Z,95.50
2022-08-07T07:24:10.141Z,95.50
2022-08-07T07:26:31.006Z,94.80
2022-08-07T07:27:04.196Z,94.10
2022-08-07T07:28:48.499Z,94.00
2022-08-07T07:30:39.659Z,93.80
2022-08-07T07:32:14.982Z,93.80
2022-08-07T07:33:56.534Z,94.30
2022-08-07T07:35:33.510Z,94.20
2022-08-07T07:37:21.489Z,93.50
2022-08-07T07:39:03.267Z,92.70
2022-08-07T07:40:38.043Z,93.20
2022-08-07T07:42:17.359Z,92.60
2022-08-07T07:44:17.684Z,92.30
2022-08-07T07:46:37.884Z,92.50
2022-08-07T07:47:51.935Z,92.90
2022-08-07T07:50:36.311Z,91.70
2022-08-07T07:51:23.816Z,92.10
2022-08-07T07:52:58.588Z,92.60
2022-08-07T07:54:34.523Z,92.80
2022-08-07T07:56:10.312Z,92.30
2022-08-07T07:57:52.897Z,92.10
2022-08-07T07:59:52.091Z,92.70
2022-08-07T08:02:02.619Z,91.80
2022-08-07T08:04:06.599Z,92.00
2022-08-07T08:05:15.037Z,91.60
2022-08-07T08:06:52.076Z,92.20
2022-08-07T08:08:34.581Z,91.80
2022-08-07T08:10:14.840Z,92.40
2022-08-07T08:12:05.140Z,92.10
2022-08-07T08:13:54.150Z,92.30
2022-08-07T08:15:58.133Z,91.80
2022-08-07T08:17:55.894Z,91.40
2022-08-07T08:20:22.527Z,91.60
2022-08-07T08:21:55.841Z,91.70
2022-08-07T08:23:47.218Z,90.30
2022-08-07T08:25:50.011Z,90.50
2022-08-07T08:27:25.785Z,91.00
2022-08-07T08:29:08.322Z,90.60
2022-08-07T08:30:51.373Z,91.20
2022-08-07T08:32:38.595Z,91.60
2022-08-07T08:34:24.886Z,90.90
2022-08-07T08:36:01.096Z,91.30
2022-08-07T08:38:00.486Z,91.20
2022-08-07T08:39:39.840Z,91.40
2022-08-07T08:41:31.361Z,91.20
2022-08-07T08:43:42.195Z,90.40
2022-08-07T08:45:20.739Z,90.20
2022-08-07T08:47:10.089Z,90.80
2022-08-07T08:48:52.420Z,90.00
2022-08-07T08:50:39.831Z,89.60
2022-08-07T08:52:19.327Z,90.20
2022-08-07T08:53:58.642Z,90.70
2022-08-07T08:55:53.358Z,89.40
2022-08-07T08:57:35.785Z,90.10
2022-08-07T08:59:16.446Z,90.60
2022-08-07T09:00:53.549Z,90.90
2022-08-07T09:02:37.985Z,89.80
2022-08-07T09:04:18.637Z,90.20
2022-08-07T09:06:06.283Z,88.80
2022-08-07T09:07:57.660Z,87.60
2022-08-07T09:09:47.996Z,89.50
2022-08-07T09:11:50.638Z,90.10
2022-08-07T09:13:38.004Z,90.60
2022-08-07T09:16:22.378Z,90.70
2022-08-07T09:18:01.275Z,90.60
2022-08-07T09:19:53.487Z,88.60
2022-08-07T09:22:09.813Z,88.50
2022-08-07T09:24:32.766Z,89.00
2022-08-07T09:25:40.055Z,87.10
2022-08-07T09:27:27.408Z,88.50
2022-08-07T09:30:01.487Z,87.50
2022-08-07T09:31:09.467Z,87.60
2022-08-07T09:32:57.651Z,86.20
2022-08-07T09:34:37.961Z,86.30
2022-08-07T09:36:16.584Z,87.30
2022-08-07T09:38:10.469Z,87.90
2022-08-07T09:39:54.531Z,89.30
2022-08-07T09:41:58.633Z,87.40
2022-08-07T09:44:06.563Z,87.60
2022-08-07T09:47:50.852Z,89.40
2022-08-07T09:47:56.016Z,88.20
2022-08-07T09:50:01.739Z,88.00
2022-08-07T09:52:16.254Z,89.40
2022-08-07T09:53:48.990Z,88.90
2022-08-07T09:56:02.459Z,85.90
2022-08-07T09:57:54.359Z,85.90
2022-08-07T10:00:01.407Z,85.60
2022-08-07T10:01:54.342Z,88.00
2022-08-07T10:04:04.898Z,89.50
2022-08-07T10:06:12.250Z,86.40
2022-08-07T10:08:02.341Z,87.40
2022-08-07T10:10:02.716Z,87.10
2022-08-07T10:12:01.460Z,86.30
2022-08-07T10:14:00.458Z,86.30
2022-08-07T10:15:49.787Z,85.80
2022-08-07T10:18:01.475Z,87.80
2022-08-07T10:19:44.191Z,87.60
2022-08-07T10:22:12.049Z,87.30
2022-08-07T10:24:04.933Z,87.10
2022-08-07T10:25:55.245Z,87.20
2022-08-07T10:27:51.420Z,84.30
2022-08-07T10:29:52.051Z,84.20
2022-08-07T10:31:50.635Z,85.60
2022-08-07T10:34:06.218Z,85.00
2022-08-07T10:35:56.562Z,86.30
2022-08-07T10:38:21.120Z,85.10
2022-08-07T10:40:05.609Z,85.00
2022-08-07T10:41:53.848Z,85.30
2022-08-07T10:43:43.049Z,87.70
2022-08-07T10:45:57.113Z,87.50
2022-08-07T10:47:51.346Z,86.00
2022-08-07T10:49:45.340Z,85.90
2022-08-07T10:51:39.265Z,85.90
2022-08-07T10:53:28.439Z,87.90
2022-08-07T10:55:37.190Z,88.30
2022-08-07T10:57:16.311Z,85.40
2022-08-07T10:59:08.071Z,84.60
2022-08-07T11:00:56.160Z,85.50
2022-08-07T11:02:34.921Z,85.30
2022-08-07T11:04:32.030Z,82.80
2022-08-07T11:06:15.742Z,81.30
2022-08-07T11:08:03.498Z,82.50
2022-08-07T11:10:08.920Z,83.40
2022-08-07T11:11:44.279Z,84.00
2022-08-07T11:14:45.143Z,85.30
2022-08-07T11:15:31.860Z,84.40
2022-08-07T11:17:12.188Z,82.80
2022-08-07T11:18:52.724Z,83.90
2022-08-07T11:20:36.227Z,84.00
2022-08-07T11:22:27.354Z,84.40
2022-08-07T11:24:18.005Z,84.60
2022-08-07T11:26:06.307Z,83.80
2022-08-07T11:28:01.230Z,83.90
2022-08-07T11:29:49.114Z,84.00
2022-08-07T11:31:42.567Z,83.70
2022-08-07T11:33:54.079Z,85.00
2022-08-07T11:35:25.038Z,84.10
2022-08-07T11:37:06.775Z,84.60
2022-08-07T11:38:54.663Z,84.00
2022-08-07T11:40:40.240Z,85.60
2022-08-07T11:42:31.188Z,86.60
2022-08-07T11:44:14.295Z,85.50
2022-08-07T11:46:09.426Z,82.50
2022-08-07T11:47:58.865Z,82.80
2022-08-07T11:50:31.201Z,83.40
2022-08-07T11:52:00.083Z,82.10
2022-08-07T11:54:01.796Z,84.20
2022-08-07T11:56:24.703Z,84.20
2022-08-07T11:58:01.599Z,82.00
2022-08-07T12:00:10.647Z,83.40
2022-08-07T12:02:01.393Z,84.30
2022-08-07T12:03:58.689Z,84.60
2022-08-07T12:05:48.936Z,83.60
2022-08-07T12:07:38.651Z,84.20
2022-08-07T12:09:23.300Z,84.90
2022-08-07T12:11:08.275Z,83.50
2022-08-07T12:13:03.975Z,83.60
2022-08-07T12:14:55.408Z,83.90
2022-08-07T12:16:39.350Z,83.80
2022-08-07T12:18:22.298Z,84.00
2022-08-07T12:20:30.381Z,83.70
2022-08-07T12:22:39.233Z,84.40
2022-08-07T12:24:12.270Z,85.00
2022-08-07T12:26:22.732Z,85.50
2022-08-07T12:28:08.979Z,85.40
2022-08-07T12:29:51.790Z,83.30
2022-08-07T12:31:53.150Z,84.20
2022-08-07T12:33:31.010Z,84.20
2022-08-07T12:35:26.807Z,84.20
2022-08-07T12:37:08.063Z,82.20
2022-08-07T12:38:47.327Z,82.60
2022-08-07T12:40:50.349Z,83.00
2022-08-07T12:42:28.559Z,82.30
2022-08-07T12:44:13.115Z,82.40
2022-08-07T12:45:57.165Z,82.20
2022-08-07T12:47:40.614Z,84.20
2022-08-07T12:49:39.711Z,83.30
2022-08-07T12:51:17.683Z,83.20
2022-08-07T12:52:58.012Z,82.20
2022-08-07T12:54:38.953Z,83.20
2022-08-07T12:56:22.165Z,83.90
2022-08-07T12:58:00.820Z,84.10
2022-08-07T12:59:53.895Z,83.40
2022-08-07T13:01:40.408Z,82.40
2022-08-07T13:04:00.546Z,81.70
2022-08-07T13:06:02.925Z,82.30
2022-08-07T13:08:18.621Z,81.90
2022-08-07T13:10:39.788Z,81.10
2022-08-07T13:12:27.891Z,81.80
2022-08-07T13:14:09.751Z,82.70
2022-08-07T13:15:59.229Z,83.40
2022-08-07T13:17:40.031Z,84.30
2022-08-07T13:19:45.808Z,82.40
2022-08-07T13:21:50.087Z,82.90
2022-08-07T13:24:01.730Z,83.20
2022-08-07T13:25:28.801Z,83.90
2022-08-07T13:27:12.836Z,83.90
2022-08-07T13:28:55.290Z,82.70
2022-08-07T13:30:41.093Z,83.60
2022-08-07T13:32:32.410Z,82.60
2022-08-07T13:34:32.622Z,82.10
2022-08-07T13:36:17.313Z,81.00
2022-08-07T13:38:00.917Z,81.90
2022-08-07T13:40:32.740Z,79.20
2022-08-07T13:41:41.381Z,80.80
2022-08-07T13:43:16.348Z,80.60
2022-08-07T13:45:11.561Z,79.40
2022-08-07T13:46:49.244Z,79.00
2022-08-07T13:48:34.168Z,78.40
2022-08-07T13:50:32.783Z,79.30
2022-08-07T13:52:30.567Z,78.90
2022-08-07T13:54:03.986Z,79.10
2022-08-07T13:55:37.567Z,78.10
2022-08-07T13:57:14.684Z,78.80
2022-08-07T13:59:00.863Z,78.20
2022-08-07T14:00:39.693Z,77.90
2022-08-07T14:02:39.514Z,77.80
2022-08-07T14:04:29.683Z,78.80
2022-08-07T14:06:09.471Z,77.90
2022-08-07T14:08:00.769Z,78.40
2022-08-07T14:10:02.065Z,78.30
2022-08-07T14:11:53.630Z,78.40
2022-08-07T14:13:33.550Z,76.90
2022-08-07T14:15:09.151Z,77.10
2022-08-07T14:16:49.957Z,76.70
2022-08-07T14:18:31.032Z,76.00
2022-08-07T14:20:44.216Z,76.50
2022-08-07T14:22:10.732Z,77.70
2022-08-07T14:23:59.957Z,77.90
2022-08-07T14:25:39.467Z,78.20
2022-08-07T14:28:11.800Z,77.90
2022-08-07T14:30:05.462Z,77.20
2022-08-07T14:31:07.652Z,75.40
2022-08-07T14:32:45.569Z,75.90
2022-08-07T14:34:23.585Z,75.50
2022-08-07T14:36:02.322Z,76.40
2022-08-07T14:40:16.163Z,76.30
2022-08-07T14:41:34.003Z,76.20
2022-08-07T14:43:55.412Z,76.80
2022-08-07T14:45:21.519Z,76.20
2022-08-07T14:49:55.872Z,74.50
2022-08-07T14:51:04.622Z,75.70
2022-08-07T14:52:38.604Z,74.00
2022-08-07T14:54:31.137Z,75.00
2022-08-07T14:58:04.869Z,73.20
2022-08-07T15:00:04.587Z,74.70
2022-08-07T15:01:42.864Z,74.30
2022-08-07T15:05:23.540Z,72.90
2022-08-07T15:06:58.822Z,73.00
2022-08-07T15:08:50.205Z,73.80
2022-08-07T15:10:29.873Z,74.70
2022-08-07T15:12:10.173Z,75.50
2022-08-07T15:14:09.912Z,74.20
2022-08-07T15:15:52.478Z,73.10
2022-08-07T15:17:32.597Z,74.30
2022-08-07T15:21:44.975Z,74.20
2022-08-07T15:25:12.827Z,73.40
2022-08-07T15:25:25.422Z,73.00
2022-08-07T15:27:13.075Z,73.40
2022-08-07T15:28:56.729Z,73.40
2022-08-07T15:30:33.746Z,73.80
2022-08-07T15:32:07.604Z,74.70
2022-08-07T15:33:46.848Z,74.20
2022-08-07T15:36:04.949Z,74.30
2022-08-07T15:37:27.509Z,74.40
2022-08-07T15:39:05.333Z,74.50
2022-08-07T15:41:00.105Z,73.40
2022-08-07T15:43:05.307Z,73.60
2022-08-07T15:44:51.646Z,74.00
2022-08-07T15:46:31.942Z,73.70
2022-08-07T15:48:25.639Z,72.90
2022-08-07T15:53:51.527Z,71.80
2022-08-07T15:55:58.579Z,72.20
2022-08-07T15:57:48.124Z,73.10
2022-08-07T15:59:39.634Z,72.60
2022-08-07T16:01:20.822Z,72.10
2022-08-07T16:02:58.367Z,73.40
2022-08-07T16:04:34.425Z,73.70
2022-08-07T16:06:09.409Z,75.00
2022-08-07T16:08:33.055Z,73.40
2022-08-07T16:09:52.931Z,73.80
2022-08-07T16:11:53.178Z,72.30
2022-08-07T16:13:59.158Z,72.40
2022-08-07T16:15:57.444Z,72.60
2022-08-07T16:18:01.973Z,71.70
2022-08-07T16:19:58.474Z,72.30
2022-08-07T16:22:03.158Z,72.50
2022-08-07T16:23:58.947Z,73.00
2022-08-07T16:25:54.019Z,73.40
2022-08-07T16:27:40.710Z,72.40
2022-08-07T16:30:10.860Z,72.50
2022-08-07T16:31:51.290Z,72.70
2022-08-07T16:34:02.679Z,72.80
2022-08-07T16:35:58.480Z,73.00
2022-08-07T16:38:03.479Z,72.10
2022-08-07T16:40:14.686Z,72.60
2022-08-07T16:42:34.474Z,71.80
2022-08-07T16:44:57.253Z,71.90
2022-08-07T16:47:07.741Z,72.30
2022-08-07T16:50:28.729Z,73.20
2022-08-07T16:52:01.452Z,71.30
2022-08-07T16:53:56.940Z,71.70
2022-08-07T16:55:47.160Z,71.80
2022-08-07T16:58:02.213Z,70.90
2022-08-07T16:59:46.335Z,72.10
2022-08-07T17:01:46.064Z,71.90
2022-08-07T17:03:57.651Z,71.20
2022-08-07T17:06:02.427Z,71.10
2022-08-07T17:07:55.776Z,70.90
2022-08-07T17:10:07.427Z,70.60
2022-08-07T17:11:50.810Z,71.10
2022-08-07T17:14:17.816Z,70.20
2022-08-07T17:15:44.314Z,69.70
2022-08-07T17:17:46.068Z,70.50
2022-08-07T17:20:02.567Z,69.80
2022-08-07T17:21:23.436Z,71.00
2022-08-07T17:23:01.824Z,71.40
2022-08-07T17:24:49.927Z,71.80
2022-08-07T17:26:35.864Z,71.60
2022-08-07T17:28:32.199Z,71.60
2022-08-07T17:30:14.632Z,71.10
2022-08-07T17:32:02.588Z,71.70
2022-08-07T17:34:09.983Z,72.00
2022-08-07T17:35:50.503Z,71.30
2022-08-07T17:38:05.618Z,71.10
2022-08-07T17:39:57.753Z,70.70
2022-08-07T17:42:01.910Z,70.40
2022-08-07T17:44:01.387Z,69.60
2022-08-07T17:45:36.887Z,70.40
2022-08-07T17:47:17.002Z,71.20
2022-08-07T17:49:00.343Z,70.00
2022-08-07T17:50:46.969Z,69.90
2022-08-07T17:52:30.604Z,71.20
2022-08-07T17:54:13.433Z,70.30
2022-08-07T17:56:11.197Z,70.00
2022-08-07T17:57:58.850Z,70.90
2022-08-07T17:59:43.004Z,70.00
2022-08-07T18:01:22.900Z,70.70
2022-08-07T18:02:58.806Z,70.90
2022-08-07T18:04:35.886Z,71.00
2022-08-07T18:06:37.062Z,71.60
2022-08-07T18:08:17.468Z,71.30
2022-08-07T18:10:06.556Z,71.40
2022-08-07T18:12:16.379Z,71.50
2022-08-07T18:13:45.666Z,71.70
2022-08-07T18:15:32.824Z,72.10
2022-08-07T18:18:45.045Z,71.20
2022-08-07T18:21:06.940Z,71.40
2022-08-07T18:21:38.249Z,71.40
2022-08-07T18:23:43.829Z,72.00
2022-08-07T18:25:40.947Z,71.90
2022-08-07T18:27:20.983Z,71.80
2022-08-07T18:30:06.901Z,72.00
2022-08-07T18:31:06.240Z,71.80
2022-08-07T18:33:28.358Z,72.00
2022-08-07T18:35:18.288Z,71.90
2022-08-07T18:36:59.763Z,72.40
2022-08-07T18:39:01.315Z,72.30
2022-08-07T18:41:09.341Z,72.70
2022-08-07T18:42:58.067Z,72.50
2022-08-07T18:45:40.370Z,72.70
2022-08-07T18:46:43.228Z,72.80
2022-08-07T18:50:05.152Z,72.60
2022-08-07T18:50:49.038Z,72.90
2022-08-07T18:53:01.484Z,72.90
2022-08-07T18:54:49.815Z,73.00
2022-08-07T18:56:36.350Z,73.30
2022-08-07T18:58:39.078Z,73.00
2022-08-07T19:00:32.924Z,72.70
2022-08-07T19:02:32.401Z,73.10
2022-08-07T19:04:15.933Z,73.80
2022-08-07T19:06:04.758Z,72.80
2022-08-07T19:07:51.868Z,72.60
2022-08-07T19:09:55.577Z,72.60
2022-08-07T19:12:04.026Z,72.90
2022-08-07T19:13:50.984Z,72.80
2022-08-07T19:16:05.847Z,73.00
2022-08-07T19:17:59.401Z,72.80
2022-08-07T19:19:47.499Z,73.20
2022-08-07T19:21:44.310Z,73.10
2022-08-07T19:23:57.269Z,73.40
2022-08-07T19:26:23.199Z,73.40
2022-08-07T19:28:56.654Z,73.60
2022-08-07T19:31:05.607Z,73.60
2022-08-07T19:31:41.524Z,73.90
2022-08-07T19:33:13.133Z,73.80
2022-08-07T19:34:53.944Z,73.90
2022-08-07T19:36:31.265Z,73.90
2022-08-07T19:38:16.139Z,73.80
2022-08-07T19:40:01.941Z,73.90
2022-08-07T19:41:44.891Z,74.00
2022-08-07T19:43:51.265Z,74.10
2022-08-07T19:46:05.660Z,74.30
2022-08-07T19:47:27.852Z,74.30
2022-08-07T19:49:05.402Z,74.20
2022-08-07T19:50:43.192Z,74.50
2022-08-07T19:52:25.694Z,74.50
2022-08-07T19:54:31.148Z,74.50
2022-08-07T19:55:58.548Z,74.70
2022-08-07T19:58:01.618Z,74.90
2022-08-07T19:59:40.672Z,74.90
2022-08-07T20:01:17.602Z,75.10
2022-08-07T20:02:54.259Z,75.20
2022-08-07T20:04:31.928Z,75.30
2022-08-07T20:06:15.271Z,75.40
2022-08-07T20:08:05.766Z,75.70
2022-08-07T20:10:36.905Z,75.80
2022-08-07T20:12:22.017Z,75.90
2022-08-07T20:13:43.239Z,76.00
2022-08-07T20:15:22.451Z,76.40
2022-08-07T20:16:57.881Z,76.50
2022-08-07T20:18:34.351Z,76.70
2022-08-07T20:20:09.648Z,76.80
2022-08-07T20:21:46.666Z,77.00
2022-08-07T20:23:33.125Z,77.00
2022-08-07T20:25:19.929Z,77.10
2022-08-07T20:26:55.926Z,77.20
2022-08-07T20:28:31.615Z,77.10
2022-08-07T20:30:10.918Z,77.00
2022-08-07T20:31:46.427Z,77.00
2022-08-07T20:33:36.163Z,76.90
2022-08-07T20:35:15.996Z,76.90
2022-08-07T20:36:51.933Z,77.00
2022-08-07T20:38:29.603Z,77.00
2022-08-07T20:40:05.007Z,77.20
2022-08-07T20:41:56.711Z,77.20
2022-08-07T20:43:32.365Z,77.30
2022-08-07T20:45:32.908Z,77.40
2022-08-07T20:47:09.426Z,77.50
2022-08-07T20:49:00.813Z,77.50
2022-08-07T20:50:37.007Z,77.60
2022-08-07T20:52:17.226Z,77.60
2022-08-07T20:54:03.667Z,77.90
2022-08-07T20:55:40.873Z,78.60
2022-08-07T20:57:15.402Z,78.10
2022-08-07T20:58:53.199Z,78.10
2022-08-07T21:00:42.215Z,78.10
2022-08-07T21:02:32.169Z,78.30
2022-08-07T21:04:22.111Z,78.40
2022-08-07T21:06:00.762Z,78.40
2022-08-07T21:07:35.327Z,78.50
2022-08-07T21:09:14.050Z,78.50
2022-08-07T21:10:50.295Z,78.50
2022-08-07T21:12:28.860Z,78.50
2022-08-07T21:14:29.873Z,78.70
2022-08-07T21:16:06.032Z,78.80
2022-08-07T21:18:02.417Z,78.90
2022-08-07T21:19:51.016Z,78.90
2022-08-07T21:21:33.227Z,79.10
2022-08-07T21:23:29.312Z,79.10
2022-08-07T21:25:13.323Z,79.20
2022-08-07T21:26:56.259Z,79.10
2022-08-07T21:28:49.358Z,79.10
2022-08-07T21:30:30.338Z,79.10
2022-08-07T21:32:47.151Z,79.00
2022-08-07T21:34:13.240Z,79.00
2022-08-07T21:36:04.928Z,78.90
2022-08-07T21:37:59.307Z,78.80
2022-08-07T21:39:47.953Z,78.80
2022-08-07T21:41:38.256Z,78.90
2022-08-07T21:43:47.468Z,79.00
2022-08-07T21:46:08.813Z,79.10
2022-08-07T21:47:32.117Z,79.20
2022-08-07T21:49:14.801Z,79.20
2022-08-07T21:50:53.138Z,79.40
2022-08-07T21:52:37.342Z,79.40
2022-08-07T21:54:20.582Z,79.40
2022-08-07T21:56:01.298Z,79.60
2022-08-07T21:57:51.932Z,79.60
2022-08-07T22:00:02.754Z,79.70
2022-08-07T22:02:07.683Z,79.90
2022-08-07T22:03:39.010Z,80.00
2022-08-07T22:05:45.270Z,80.00
2022-08-07T22:07:20.864Z,80.20
2022-08-07T22:08:59.079Z,80.30
2022-08-07T22:10:35.546Z,80.30
2022-08-07T22:12:18.749Z,80.50
2022-08-07T22:14:05.172Z,80.60
2022-08-07T22:16:41.926Z,80.60
2022-08-07T22:17:42.923Z,80.70
2022-08-07T22:19:30.201Z,80.80
2022-08-07T22:21:15.451Z,80.80
2022-08-07T22:22:51.017Z,81.00
2022-08-07T22:24:33.058Z,81.00
2022-08-07T22:26:11.842Z,81.20
2022-08-07T22:28:07.529Z,81.10
2022-08-07T22:29:53.063Z,81.30
2022-08-07T22:31:59.368Z,81.40
2022-08-07T22:33:57.181Z,81.50
2022-08-07T22:35:40.307Z,81.30
2022-08-07T22:37:18.979Z,81.60
2022-08-07T22:38:56.160Z,81.80
2022-08-07T22:40:33.235Z,81.80
2022-08-07T22:42:19.568Z,81.80
2022-08-07T22:43:56.243Z,81.70
2022-08-07T22:46:40.794Z,81.90
2022-08-07T22:47:52.085Z,81.90
2022-08-07T22:49:39.420Z,82.10
2022-08-07T22:51:51.987Z,82.00
2022-08-07T22:54:05.352Z,82.30
2022-08-07T22:55:49.292Z,82.10
2022-08-07T22:57:41.195Z,82.30
2022-08-07T22:59:44.671Z,82.30
2022-08-07T23:01:42.037Z,82.30
2022-08-07T23:03:57.380Z,82.40
2022-08-07T23:06:10.343Z,82.50
2022-08-07T23:07:57.847Z,82.70
2022-08-07T23:10:00.855Z,82.60
2022-08-07T23:11:45.702Z,82.40
2022-08-07T23:14:09.333Z,82.70
2022-08-07T23:16:05.738Z,82.80